Time;durP1;ratioP1;P1;durP2;ratioP2;P2;SDS_P1;SDS_P2;PMS_P1;PMS_P2;Temp;Humidity;BMP_temperature;BMP_pressure;BME280_temperature;BME280_humidity;BME280_pressure;Samples;Min_cycle;Max_cycle;Signal;HPM_P1;HPM_P2
2022/11/07 00:00:26;;;;;;;5.35;3.17;;;;;;;9.81;100.00;100132.25;5053600;28;20041;-71
2022/11/07 00:02:53;;;;;;;6.18;2.90;;;;;;;9.81;100.00;100126.97;5049116;28;20135;-74
2022/11/07 00:05:19;;;;;;;4.97;2.80;;;;;;;9.79;100.00;100134.13;5040511;28;20471;-78
2022/11/07 00:07:46;;;;;;;6.68;3.20;;;;;;;9.84;100.00;100134.75;5040855;28;20057;-79
2022/11/07 00:10:13;;;;;;;4.40;2.65;;;;;;;9.84;100.00;100133.91;5048879;28;20148;-77
2022/11/07 00:12:39;;;;;;;4.70;3.10;;;;;;;9.87;100.00;100133.75;5048019;28;20049;-71
2022/11/07 00:15:06;;;;;;;4.95;3.08;;;;;;;9.90;100.00;100140.69;5039443;28;20472;-77
2022/11/07 00:17:34;;;;;;;6.10;3.10;;;;;;;9.91;100.00;100137.13;5034824;28;20053;-73
2022/11/07 00:20:00;;;;;;;4.15;2.92;;;;;;;9.74;100.00;100108.84;5043012;28;20539;-75
2022/11/07 00:22:27;;;;;;;4.47;3.03;;;;;;;9.88;100.00;100132.84;5044493;28;20106;-76
2022/11/07 00:24:54;;;;;;;5.15;2.90;;;;;;;9.92;100.00;100123.78;5037721;28;20049;-74
2022/11/07 00:27:20;;;;;;;4.20;2.75;;;;;;;9.93;100.00;100144.03;5041253;28;20072;-74
2022/11/07 00:29:47;;;;;;;4.85;2.90;;;;;;;9.76;100.00;100130.75;5042302;28;20058;-76
2022/11/07 00:32:13;;;;;;;3.65;2.80;;;;;;;9.87;100.00;100154.91;5043945;28;20682;-75
2022/11/07 00:34:40;;;;;;;4.80;2.78;;;;;;;9.86;100.00;100150.56;5045528;28;20049;-78
2022/11/07 00:37:07;;;;;;;3.63;2.78;;;;;;;9.84;100.00;100147.13;5042547;28;20331;-78
2022/11/07 00:39:33;;;;;;;9.02;3.47;;;;;;;9.92;100.00;100163.47;5052888;28;20045;-72
2022/11/07 00:42:00;;;;;;;5.10;3.00;;;;;;;9.90;100.00;100162.72;5055071;28;20875;-77
2022/11/07 00:44:26;;;;;;;5.45;2.90;;;;;;;9.79;100.00;100143.84;5048697;28;20116;-70
2022/11/07 00:46:53;;;;;;;6.35;3.10;;;;;;;9.87;100.00;100154.91;5043536;28;20135;-72
2022/11/07 00:49:19;;;;;;;4.30;3.00;;;;;;;9.86;100.00;100166.44;5044782;28;20466;-71
2022/11/07 00:51:46;;;;;;;5.20;3.13;;;;;;;9.83;100.00;100161.28;5052400;28;20056;-77
2022/11/07 00:54:13;;;;;;;3.47;2.80;;;;;;;9.86;100.00;100171.72;5039162;28;20687;-77
2022/11/07 00:56:39;;;;;;;4.88;3.30;;;;;;;9.77;100.00;100169.47;5034491;28;20144;-73
2022/11/07 00:59:06;;;;;;;4.63;2.88;;;;;;;9.79;100.00;100170.28;5052793;28;20148;-77
2022/11/07 01:01:33;;;;;;;4.72;3.50;;;;;;;9.81;100.00;100171.91;5041324;28;20434;-74
2022/11/07 01:06:46;;;;;;;4.63;2.80;;;;;;;9.87;100.00;100177.88;5040218;28;20045;-77
2022/11/07 01:09:19;;;;;;;6.15;2.88;;;;;;;9.87;100.00;100184.00;5058817;28;20107;-74
2022/11/07 01:11:47;;;;;;;4.72;3.30;;;;;;;9.86;100.00;100182.28;5048166;28;20053;-78
2022/11/07 01:14:16;;;;;;;6.40;3.00;;;;;;;9.90;100.00;100183.88;5046100;28;20052;-77
2022/11/07 01:16:43;;;;;;;5.65;2.88;;;;;;;9.95;100.00;100178.34;5033379;28;20111;-77
2022/11/07 01:19:09;;;;;;;4.88;3.42;;;;;;;9.96;100.00;100178.28;5044530;28;20055;-75
2022/11/07 01:21:38;;;;;;;4.85;3.05;;;;;;;9.96;100.00;100167.69;5051687;28;20077;-79
2022/11/07 01:24:08;;;;;;;7.15;3.53;;;;;;;10.01;100.00;100176.28;5048468;28;20041;-78
2022/11/07 01:26:36;;;;;;;4.18;3.33;;;;;;;10.01;100.00;100181.56;5039947;28;20041;-77
2022/11/07 01:29:03;;;;;;;6.15;3.47;;;;;;;10.02;100.00;100185.91;5051829;28;20053;-78
2022/11/07 01:31:32;;;;;;;4.05;3.13;;;;;;;10.06;100.00;100182.22;5053584;28;20128;-78
2022/11/07 01:33:59;;;;;;;4.53;2.97;;;;;;;10.05;100.00;100171.69;5051378;28;20113;-78
2022/11/07 01:36:26;;;;;;;4.65;3.38;;;;;;;10.08;100.00;100180.31;5038664;28;20132;-78
2022/11/07 01:38:53;;;;;;;5.10;3.03;;;;;;;10.06;100.00;100173.41;5053443;28;20404;-73
2022/11/07 01:41:26;;;;;;;4.82;3.17;;;;;;;10.08;100.00;100182.97;5053634;28;20072;-74
2022/11/07 01:44:22;;;;;;;4.35;3.10;;;;;;;10.14;100.00;100165.94;5046469;28;20087;-74
2022/11/07 01:46:51;;;;;;;3.35;2.72;;;;;;;10.18;100.00;100172.81;5040236;28;20559;-73
2022/11/07 01:49:36;;;;;;;5.53;3.42;;;;;;;10.22;100.00;100174.41;5050632;28;20048;-70
2022/11/07 01:52:08;;;;;;;4.63;2.85;;;;;;;10.24;100.00;100177.81;5049527;28;20091;-75
2022/11/07 01:54:45;;;;;;;3.67;2.72;;;;;;;10.25;100.00;100174.25;5045924;28;20119;-76
2022/11/07 01:58:02;;;;;;;4.75;3.33;;;;;;;10.17;100.00;100174.59;5038052;28;20056;-77
2022/11/07 02:00:30;;;;;;;3.58;3.20;;;;;;;10.08;100.00;100169.72;5000468;28;20046;-77
2022/11/07 02:03:01;;;;;;;3.03;2.63;;;;;;;10.08;100.00;100167.09;4994856;28;20042;-77
2022/11/07 02:05:33;;;;;;;5.68;3.40;;;;;;;10.10;100.00;100177.59;5021131;28;20076;-74
2022/11/07 02:08:03;;;;;;;5.97;3.17;;;;;;;10.12;100.00;100166.00;5047415;28;20485;-74
2022/11/07 02:10:33;;;;;;;5.15;3.10;;;;;;;10.14;100.00;100164.16;5052675;28;20057;-75
2022/11/07 02:13:01;;;;;;;5.43;3.00;;;;;;;10.21;100.00;100162.13;5052938;28;20063;-78
2022/11/07 02:15:28;;;;;;;5.65;3.00;;;;;;;10.17;100.00;100137.56;5039122;28;20480;-71
2022/11/07 02:17:56;;;;;;;4.60;3.13;;;;;;;10.25;100.00;100145.13;5046744;28;20136;-76
2022/11/07 02:20:22;;;;;;;5.20;3.20;;;;;;;10.29;100.00;100156.44;5053456;28;20051;-73
2022/11/07 02:22:55;;;;;;;5.00;3.05;;;;;;;10.24;100.00;100148.72;5062419;28;20098;-74
2022/11/07 02:25:22;;;;;;;4.30;3.25;;;;;;;10.11;100.00;100132.56;5037469;28;20430;-73
2022/11/07 02:27:53;;;;;;;4.40;3.50;;;;;;;10.16;100.00;100149.06;5042267;28;20123;-76
2022/11/07 02:30:26;;;;;;;4.68;3.22;;;;;;;10.17;100.00;100153.44;5050039;28;20489;-76
2022/11/07 02:32:52;;;;;;;6.90;3.42;;;;;;;10.04;100.00;100132.94;5041627;28;20071;-76
2022/11/07 02:35:39;;;;;;;5.80;3.42;;;;;;;10.22;100.00;100158.53;5042724;28;20044;-71
2022/11/07 02:38:11;;;;;;;3.67;2.78;;;;;;;10.16;100.00;100161.44;5043185;28;20049;-77
2022/11/07 02:40:38;;;;;;;3.88;3.10;;;;;;;10.11;100.00;100153.72;5051595;28;20419;-76
2022/11/07 02:43:07;;;;;;;5.15;3.33;;;;;;;10.10;100.00;100159.09;5047998;28;20143;-77
2022/11/07 02:45:38;;;;;;;4.03;3.08;;;;;;;10.13;100.00;100165.09;5048323;28;20053;-71
2022/11/07 02:48:05;;;;;;;5.25;3.17;;;;;;;9.96;100.00;100129.81;5037254;28;20048;-76
2022/11/07 02:50:32;;;;;;;4.72;2.97;;;;;;;10.07;100.00;100148.69;5054459;28;20068;-73
2022/11/07 02:52:59;;;;;;;7.32;3.33;;;;;;;10.08;100.00;100126.53;5055439;28;20131;-73
2022/11/07 02:55:25;;;;;;;7.78;3.55;;;;;;;10.08;100.00;100135.34;5040233;28;20793;-71
2022/11/07 02:57:52;;;;;;;7.25;3.90;;;;;;;10.00;100.00;100141.94;5041778;28;20045;-79
2022/11/07 03:00:18;;;;;;;5.60;3.60;;;;;;;9.95;100.00;100150.09;5050591;28;20469;-72
2022/11/07 03:02:48;;;;;;;7.05;3.92;;;;;;;9.91;100.00;100153.00;5050170;28;20068;-75
2022/11/07 03:05:17;;;;;;;6.80;3.95;;;;;;;9.86;100.00;100145.28;5041420;28;20049;-79
2022/11/07 03:07:45;;;;;;;7.13;4.60;;;;;;;9.85;100.00;100143.56;5037203;28;20083;-75
2022/11/07 03:10:13;;;;;;;7.15;3.88;;;;;;;9.84;100.00;100144.47;5050795;28;20055;-79
2022/11/07 03:12:39;;;;;;;5.10;3.88;;;;;;;9.81;100.00;100147.25;5057393;28;20059;-76
2022/11/07 03:15:08;;;;;;;8.57;3.97;;;;;;;9.78;100.00;100142.97;5048945;28;20118;-77
2022/11/07 03:17:35;;;;;;;9.05;4.15;;;;;;;9.74;100.00;100152.00;5036949;28;20091;-78
2022/11/07 03:20:03;;;;;;;7.25;4.45;;;;;;;9.67;100.00;100155.84;5050245;28;20480;-75
2022/11/07 03:22:29;;;;;;;7.38;4.70;;;;;;;9.65;100.00;100156.84;5057333;28;20709;-76
2022/11/07 03:24:56;;;;;;;6.75;4.50;;;;;;;9.46;100.00;100133.06;5041329;28;20544;-74
2022/11/07 03:27:22;;;;;;;7.43;4.75;;;;;;;9.54;100.00;100148.56;5030657;28;20128;-70
2022/11/07 03:29:49;;;;;;;7.75;4.65;;;;;;;9.56;100.00;100167.88;5046688;28;20163;-74
2022/11/07 03:32:16;;;;;;;10.48;4.90;;;;;;;9.55;100.00;100174.94;5045258;28;20069;-72
2022/11/07 03:34:42;;;;;;;8.10;4.72;;;;;;;9.53;100.00;100170.66;5044818;28;20052;-80
2022/11/07 03:37:09;;;;;;;11.90;4.85;;;;;;;9.52;100.00;100169.78;5035526;28;20076;-75
2022/11/07 03:39:35;;;;;;;8.43;4.70;;;;;;;9.29;100.00;100133.84;5044100;28;20064;-74
2022/11/07 03:42:02;;;;;;;8.35;4.72;;;;;;;9.52;100.00;100168.94;5047125;28;20037;-77
2022/11/07 03:44:29;;;;;;;10.05;5.18;;;;;;;9.39;100.00;100144.84;5042049;28;20049;-77
2022/11/07 03:46:55;;;;;;;7.10;4.75;;;;;;;9.40;100.00;100147.44;5035681;28;20041;-75
2022/11/07 03:49:22;;;;;;;7.40;4.47;;;;;;;9.52;100.00;100172.44;5044414;28;20059;-74
2022/11/07 03:51:48;;;;;;;7.53;4.60;;;;;;;9.58;100.00;100164.22;5046462;28;20509;-77
2022/11/07 03:54:15;;;;;;;9.73;5.00;;;;;;;9.62;100.00;100172.84;5044768;28;20081;-76
2022/11/07 03:56:42;;;;;;;8.48;5.05;;;;;;;9.65;100.00;100170.94;5033995;28;20148;-74
2022/11/07 03:59:08;;;;;;;8.77;5.15;;;;;;;9.63;100.00;100154.28;5041523;28;20094;-76
2022/11/07 04:01:35;;;;;;;6.10;4.38;;;;;;;9.67;100.00;100165.56;5045047;28;20063;-72
2022/11/07 04:04:01;;;;;;;8.32;4.63;;;;;;;9.70;100.00;100170.72;5030490;28;20059;-75
2022/11/07 04:06:28;;;;;;;8.00;4.50;;;;;;;9.73;100.00;100167.94;5033268;28;20135;-75
2022/11/07 04:08:55;;;;;;;8.07;4.40;;;;;;;9.78;100.00;100169.41;5042958;28;20079;-71
2022/11/07 04:19:37;;;;;;;7.05;4.18;;;;;;;9.94;100.00;100177.47;5039728;28;20067;-77
2022/11/07 04:22:03;;;;;;;8.15;4.57;;;;;;;9.93;100.00;100182.84;5049649;28;20040;-77
2022/11/07 04:24:30;;;;;;;9.25;4.60;;;;;;;9.92;100.00;100181.13;5052502;28;20401;-72
2022/11/07 04:29:42;;;;;;;7.55;4.40;;;;;;;9.91;100.00;100195.31;5042718;28;20048;-75
2022/11/07 04:32:08;;;;;;;7.45;4.10;;;;;;;9.92;100.00;100192.56;5047898;28;20132;-75
2022/11/07 04:34:35;;;;;;;8.63;4.30;;;;;;;9.95;100.00;100183.63;5046825;28;20052;-76
2022/11/07 04:37:02;;;;;;;8.90;4.25;;;;;;;10.00;100.00;100195.72;5041327;28;20056;-73
2022/11/07 04:39:28;;;;;;;6.97;3.75;;;;;;;9.84;100.00;100169.13;5049734;28;20351;-78
2022/11/07 04:41:55;;;;;;;8.20;4.20;;;;;;;9.94;100.00;100184.56;5048724;28;20054;-73
2022/11/07 04:44:22;;;;;;;7.88;3.70;;;;;;;10.02;100.00;100193.84;5052009;28;20244;-76
2022/11/07 04:46:48;;;;;;;9.05;4.03;;;;;;;10.05;100.00;100184.91;5042139;28;20064;-77
2022/11/07 04:49:15;;;;;;;5.47;3.42;;;;;;;10.09;100.00;100186.47;5040387;28;20037;-75
2022/11/07 04:51:42;;;;;;;7.38;4.53;;;;;;;10.10;100.00;100185.53;5052360;28;20071;-77
2022/11/07 04:54:13;;;;;;;7.22;4.00;;;;;;;10.10;100.00;100189.03;5041127;28;20053;-78
2022/11/07 04:56:39;;;;;;;7.30;3.63;;;;;;;10.10;100.00;100196.97;5039817;28;20351;-79
2022/11/07 04:59:06;;;;;;;7.97;3.70;;;;;;;10.12;100.00;100197.75;5040488;28;20045;-76
2022/11/07 05:01:33;;;;;;;7.18;3.53;;;;;;;10.07;100.00;100189.19;5052177;28;20049;-75
2022/11/07 05:04:00;;;;;;;6.15;3.97;;;;;;;10.14;100.00;100190.63;5053812;28;20043;-77
2022/11/07 05:06:26;;;;;;;6.82;3.85;;;;;;;10.06;100.00;100170.78;5045787;28;20408;-70
2022/11/07 05:08:53;;;;;;;9.60;3.97;;;;;;;10.21;100.00;100193.88;5041780;28;20482;-72
2022/11/07 05:11:19;;;;;;;6.18;3.28;;;;;;;10.22;100.00;100194.72;5049784;28;20377;-77
2022/11/07 05:13:46;;;;;;;8.25;3.70;;;;;;;10.13;100.00;100180.09;5058985;28;20057;-77
2022/11/07 05:16:17;;;;;;;7.35;3.30;;;;;;;10.12;100.00;100176.59;5052149;28;20715;-74
2022/11/07 05:18:44;;;;;;;4.82;3.20;;;;;;;10.26;100.00;100191.84;5036583;28;20049;-73
2022/11/07 05:21:11;;;;;;;4.80;2.95;;;;;;;10.30;100.00;100203.13;5050318;28;20119;-76
2022/11/07 05:23:37;;;;;;;8.75;3.78;;;;;;;10.30;100.00;100192.56;5052580;28;20060;-74
2022/11/07 05:26:04;;;;;;;5.03;3.05;;;;;;;10.33;100.00;100201.19;5053720;28;20168;-75
2022/11/07 05:28:31;;;;;;;5.43;3.45;;;;;;;10.34;100.00;100192.34;5042528;28;20497;-71
2022/11/07 05:31:06;;;;;;;6.72;3.20;;;;;;;10.37;100.00;100188.69;5053161;28;20083;-78
2022/11/07 05:33:34;;;;;;;6.72;3.08;;;;;;;10.32;100.00;100185.41;5050964;28;20045;-72
2022/11/07 05:36:12;;;;;;;7.75;3.33;;;;;;;10.46;100.00;100188.22;5052035;28;20053;-76
2022/11/07 05:38:43;;;;;;;10.82;3.53;;;;;;;10.49;100.00;100190.72;5037593;28;20131;-77
2022/11/07 05:41:11;;;;;;;5.45;3.00;;;;;;;10.50;100.00;100197.72;5051443;28;20639;-77
2022/11/07 05:43:38;;;;;;;7.70;3.28;;;;;;;10.56;100.00;100189.47;5051219;28;20576;-73
2022/11/07 05:46:06;;;;;;;5.65;2.97;;;;;;;10.44;100.00;100160.97;5049970;28;20037;-76
2022/11/07 05:48:33;;;;;;;7.65;2.65;;;;;;;10.62;100.00;100191.81;5042214;28;20127;-76
2022/11/07 05:51:00;;;;;;;11.10;3.08;;;;;;;10.65;100.00;100185.50;5055946;28;20127;-77
2022/11/07 05:53:27;;;;;;;9.90;3.10;;;;;;;10.69;100.00;100195.88;5041418;28;20076;-74
2022/11/07 05:55:53;;;;;;;7.82;2.95;;;;;;;10.69;100.00;100198.53;5049228;28;20637;-76
2022/11/07 05:58:21;;;;;;;4.78;2.85;;;;;;;10.73;100.00;100200.06;5046180;28;20049;-76
2022/11/07 06:00:47;;;;;;;7.43;2.60;;;;;;;10.61;100.00;100174.22;5047213;28;20421;-75
2022/11/07 06:03:15;;;;;;;5.20;2.60;;;;;;;10.78;100.00;100203.34;5041823;28;20063;-75
2022/11/07 06:05:42;;;;;;;5.97;2.90;;;;;;;10.81;100.00;100203.19;5055468;28;20049;-75
2022/11/07 06:08:11;;;;;;;8.10;2.47;;;;;;;10.82;100.00;100207.56;5036513;28;20128;-70
2022/11/07 06:10:39;;;;;;;5.28;2.53;;;;;;;10.81;100.00;100199.69;5046405;28;20144;-78
2022/11/07 06:13:09;;;;;;;5.95;2.75;;;;;;;10.85;100.00;100212.72;5048374;28;20131;-75
2022/11/07 06:15:37;;;;;;;8.25;4.85;;;;;;;10.88;100.00;100212.53;5041654;28;20061;-72
2022/11/07 06:18:06;;;;;;;5.80;2.55;;;;;;;10.94;100.00;100215.81;5042872;28;20611;-77
2022/11/07 06:20:33;;;;;;;8.45;2.80;;;;;;;10.92;100.00;100205.28;5050930;28;20044;-75
2022/11/07 06:23:03;;;;;;;10.90;2.95;;;;;;;11.01;100.00;100212.78;5055538;28;20049;-72
2022/11/07 06:25:30;;;;;;;5.93;2.60;;;;;;;11.02;100.00;100216.28;5045190;28;20049;-79
2022/11/07 06:28:02;;;;;;;6.78;2.67;;;;;;;11.03;100.00;100215.31;5039389;28;20045;-75
2022/11/07 06:30:29;;;;;;;4.07;2.17;;;;;;;11.10;100.00;100216.72;5052434;28;20045;-76
2022/11/07 06:32:59;;;;;;;8.93;2.50;;;;;;;11.09;100.00;100223.81;5049244;28;20049;-78
2022/11/07 06:35:26;;;;;;;10.00;2.30;;;;;;;11.04;100.00;100222.34;5052031;28;20055;-71
2022/11/07 06:37:53;;;;;;;8.27;2.67;;;;;;;10.97;100.00;100210.34;5044064;28;20152;-78
2022/11/07 06:40:19;;;;;;;7.35;2.30;;;;;;;11.09;100.00;100228.25;5048299;28;20063;-80
2022/11/07 06:42:46;;;;;;;9.27;2.30;;;;;;;11.07;100.00;100220.38;5047195;28;20396;-76
2022/11/07 06:45:12;;;;;;;7.35;2.40;;;;;;;11.15;100.00;100230.59;5043296;28;20448;-75
2022/11/07 06:47:39;;;;;;;7.25;2.60;;;;;;;11.14;100.00;100239.50;5047837;28;20077;-70
2022/11/07 06:50:06;;;;;;;6.05;2.70;;;;;;;11.19;100.00;100234.78;5046744;28;20072;-78
2022/11/07 06:52:33;;;;;;;8.38;2.50;;;;;;;11.06;100.00;100208.06;5051751;28;20045;-71
2022/11/07 06:54:59;;;;;;;7.88;2.33;;;;;;;11.18;100.00;100233.94;5050338;28;20112;-73
2022/11/07 06:57:27;;;;;;;6.95;2.53;;;;;;;11.27;100.00;100245.00;5040595;28;20582;-71
2022/11/07 06:59:54;;;;;;;6.40;2.42;;;;;;;11.33;100.00;100245.56;5041702;28;20045;-76
2022/11/07 07:02:20;;;;;;;8.95;2.63;;;;;;;11.36;100.00;100255.97;5037321;28;20048;-75
2022/11/07 07:05:07;;;;;;;6.78;2.75;;;;;;;11.41;100.00;100253.94;5045874;28;20045;-72
2022/11/07 07:07:34;;;;;;;8.05;2.30;;;;;;;11.48;100.00;100259.81;5039546;28;20091;-74
2022/11/07 07:10:00;;;;;;;6.07;2.00;;;;;;;11.51;100.00;100270.22;5044540;28;20072;-78
2022/11/07 07:12:27;;;;;;;6.35;2.30;;;;;;;11.45;100.00;100265.25;5052036;28;20441;-78
2022/11/07 07:14:54;;;;;;;4.88;2.13;;;;;;;11.49;100.00;100266.81;5038777;28;20128;-72
2022/11/07 07:17:21;;;;;;;10.35;2.83;;;;;;;11.53;100.00;100271.84;5042242;28;20142;-76
2022/11/07 07:19:47;;;;;;;6.32;2.63;;;;;;;11.50;100.00;100271.16;5038582;28;20051;-73
2022/11/07 07:22:14;;;;;;;4.80;2.22;;;;;;;11.56;100.00;100279.66;5046631;28;20504;-75
2022/11/07 07:24:41;;;;;;;8.95;2.30;;;;;;;11.59;100.00;100281.28;5044308;28;20151;-76
2022/11/07 07:27:07;;;;;;;6.85;2.38;;;;;;;11.60;100.00;100270.59;5042208;28;20045;-74
2022/11/07 07:29:34;;;;;;;6.53;2.33;;;;;;;11.68;100.00;100266.69;5042332;28;20047;-75
2022/11/07 07:32:01;;;;;;;8.05;2.38;;;;;;;11.72;100.00;100285.00;5044567;28;20160;-74
2022/11/07 07:34:27;;;;;;;8.52;2.47;;;;;;;11.64;100.00;100276.63;5040949;28;20064;-71
2022/11/07 07:36:54;;;;;;;4.65;2.22;;;;;;;11.69;100.00;100279.84;5043482;28;20127;-74
2022/11/07 07:39:22;;;;;;;6.05;2.33;;;;;;;11.68;100.00;100283.44;5034308;28;20059;-72
2022/11/07 07:41:49;;;;;;;5.53;2.00;;;;;;;11.70;100.00;100283.38;5046899;28;20056;-76
2022/11/07 07:44:16;;;;;;;5.65;2.72;;;;;;;11.75;100.00;100284.84;5044504;28;20049;-76
2022/11/07 07:46:42;;;;;;;7.65;2.28;;;;;;;11.73;100.00;100276.13;5038642;28;20517;-74
2022/11/07 07:49:09;;;;;;;5.85;2.03;;;;;;;11.76;100.00;100280.44;5037787;28;20053;-77
2022/11/07 07:51:36;;;;;;;5.10;2.25;;;;;;;11.81;100.00;100287.19;5032572;28;20049;-73
2022/11/07 07:54:03;;;;;;;6.45;2.22;;;;;;;11.83;100.00;100287.09;5032949;28;20072;-76
2022/11/07 07:56:29;;;;;;;5.35;2.15;;;;;;;11.80;100.00;100293.47;5043736;28;20422;-77
2022/11/07 07:58:56;;;;;;;5.90;2.03;;;;;;;11.85;100.00;100293.19;5031967;28;20084;-74
2022/11/07 08:01:23;;;;;;;8.88;2.25;;;;;;;11.89;100.00;100302.72;5039210;28;20147;-78
2022/11/07 08:03:49;;;;;;;8.88;2.53;;;;;;;11.93;100.00;100298.97;5047217;28;20041;-77
2022/11/07 08:06:29;;;;;;;8.32;2.08;;;;;;;11.90;100.00;100281.41;5042569;28;20040;-71
2022/11/07 08:08:56;;;;;;;5.93;2.08;;;;;;;11.93;100.00;100277.72;5035204;28;20045;-75
2022/11/07 08:11:22;;;;;;;9.63;2.10;;;;;;;12.12;100.00;100309.44;5048195;28;20040;-73
2022/11/07 08:13:49;;;;;;;12.65;2.47;;;;;;;12.15;100.00;100301.28;5037099;28;20136;-73
2022/11/07 08:16:16;;;;;;;5.40;2.22;;;;;;;12.22;100.00;100302.66;5034734;28;20049;-73
2022/11/07 08:18:42;;;;;;;10.60;2.72;;;;;;;12.35;100.00;100310.81;5028231;28;20144;-78
2022/11/07 08:21:09;;;;;;;6.43;1.75;;;;;;;12.46;100.00;100301.28;5048200;28;20156;-73
2022/11/07 08:23:36;;;;;;;10.27;2.00;;;;;;;12.56;100.00;100302.50;5059810;28;20041;-73
2022/11/07 08:26:03;;;;;;;6.85;2.30;;;;;;;12.61;100.00;100312.84;5050930;28;20897;-75
2022/11/07 08:28:33;;;;;;;6.30;1.90;;;;;;;12.62;100.00;100310.09;5042208;28;20156;-76
2022/11/07 08:31:03;;;;;;;5.10;2.08;;;;;;;12.65;100.00;100314.41;5048905;28;20212;-71
2022/11/07 08:33:29;;;;;;;7.32;2.17;;;;;;;12.64;100.00;100308.22;5048414;28;20856;-75
2022/11/07 08:36:01;;;;;;;9.48;1.63;;;;;;;12.67;100.00;100304.53;5039636;28;20045;-75
2022/11/07 08:38:29;;;;;;;11.32;2.80;;;;;;;12.59;100.00;100282.88;5032972;28;20053;-77
2022/11/07 08:40:56;;;;;;;8.13;2.03;;;;;;;12.73;100.00;100298.03;5048401;28;20127;-72
2022/11/07 08:43:23;;;;;;;7.53;1.98;;;;;;;12.86;100.00;100313.19;5039836;28;20128;-76
2022/11/07 08:45:52;;;;;;;8.32;2.33;;;;;;;12.95;100.00;100312.63;5034922;28;20136;-76
2022/11/07 08:48:19;;;;;;;6.97;1.73;;;;;;;12.99;100.00;100310.66;5037841;28;20136;-71
2022/11/07 08:50:51;;;;;;;6.50;1.95;;;;;;;13.06;100.00;100313.84;5038124;28;20052;-75
2022/11/07 08:53:17;;;;;;;6.25;2.05;;;;;;;13.09;100.00;100300.34;5050553;28;20071;-73
2022/11/07 08:55:44;;;;;;;6.07;2.05;;;;;;;13.11;100.00;100301.09;5040483;28;20057;-72
2022/11/07 08:58:11;;;;;;;6.70;1.85;;;;;;;13.12;100.00;100310.81;5040596;28;20053;-76
2022/11/07 09:00:38;;;;;;;11.10;2.20;;;;;;;13.19;100.00;100314.84;5048836;28;20049;-72
2022/11/07 09:03:10;;;;;;;6.80;2.10;;;;;;;13.25;100.00;100322.44;5033462;28;20754;-78
2022/11/07 09:05:57;;;;;;;6.38;2.03;;;;;;;13.11;100.00;100285.16;5038016;28;20049;-76
2022/11/07 09:08:24;;;;;;;3.95;2.05;;;;;;;13.36;100.00;100317.38;5034733;28;20051;-76
2022/11/07 09:10:51;;;;;;;5.72;2.08;;;;;;;13.34;99.42;100313.94;5038312;28;20091;-77
2022/11/07 09:13:19;;;;;;;7.28;1.88;;;;;;;13.40;100.00;100323.34;5030418;28;20115;-75
2022/11/07 09:15:46;;;;;;;8.23;2.33;;;;;;;13.42;99.37;100318.78;5045266;28;20198;-75
2022/11/07 09:18:16;;;;;;;;;;;;;;;13.44;99.28;100320.41;5039490;28;20252;-72
2022/11/07 09:20:44;;;;;;;7.57;1.80;;;;;;;13.38;99.07;100311.97;5029222;28;19956;-73
2022/11/07 09:23:10;;;;;;;9.63;2.47;;;;;;;13.35;98.95;100318.31;5030882;28;20075;-75
2022/11/07 09:25:37;;;;;;;7.63;2.15;;;;;;;13.25;99.99;100319.78;5038627;28;20127;-73
2022/11/07 09:28:04;;;;;;;7.22;2.00;;;;;;;13.20;100.00;100311.25;5024312;28;20044;-76
2022/11/07 09:30:31;;;;;;;6.68;2.03;;;;;;;13.20;100.00;100316.56;5035511;28;20049;-74
2022/11/07 09:32:58;;;;;;;7.88;2.10;;;;;;;13.23;100.00;100313.72;5033187;28;20060;-71
2022/11/07 09:35:25;;;;;;;5.95;2.08;;;;;;;13.26;100.00;100316.19;5034953;28;20141;-77
2022/11/07 09:37:52;;;;;;;6.50;1.75;;;;;;;13.29;99.79;100316.88;5038219;28;20055;-73
2022/11/07 09:40:18;;;;;;;7.28;1.90;;;;;;;13.33;99.81;100328.19;5031465;28;20052;-75
2022/11/07 09:43:09;;;;;;;9.25;2.08;;;;;;;13.32;99.83;100327.34;5038373;28;20085;-79
2022/11/07 09:46:04;;;;;;;9.43;1.83;;;;;;;13.21;100.00;100326.25;5037632;28;20094;-72
2022/11/07 09:48:46;;;;;;;12.88;2.40;;;;;;;13.16;100.00;100325.66;5040319;28;20076;-77
2022/11/07 09:51:31;;;;;;;10.13;2.25;;;;;;;13.21;100.00;100324.47;5039146;28;20094;-77
2022/11/07 09:54:03;;;;;;;11.40;2.55;;;;;;;13.26;100.00;100322.38;5039316;28;20068;-76
2022/11/07 09:56:32;;;;;;;12.57;2.03;;;;;;;13.21;100.00;100320.94;5040967;28;20486;-79
2022/11/07 09:59:05;;;;;;;5.82;1.77;;;;;;;13.21;100.00;100320.94;5037963;28;20057;-70
2022/11/07 10:01:39;;;;;;;8.07;1.63;;;;;;;13.18;100.00;100313.13;5042394;28;20090;-74
2022/11/07 10:04:13;;;;;;;7.35;1.60;;;;;;;13.30;100.00;100325.72;5039754;28;20056;-78
2022/11/07 10:07:00;;;;;;;10.43;2.10;;;;;;;13.36;100.00;100322.69;5043334;28;20474;-71
2022/11/07 10:09:46;;;;;;;7.45;1.85;;;;;;;13.47;99.69;100325.56;5028568;28;20114;-74
2022/11/07 10:12:31;;;;;;;10.38;2.15;;;;;;;13.56;99.32;100329.47;5040127;28;20568;-79
2022/11/07 10:15:37;;;;;;;5.82;2.55;;;;;;;13.64;98.21;100320.09;5045930;28;20140;-76
2022/11/07 10:18:24;;;;;;;10.75;1.80;;;;;;;13.78;97.95;100326.38;5009159;28;21455;-72
2022/11/07 10:21:13;;;;;;;7.78;1.98;;;;;;;13.86;97.34;100326.72;5036185;28;20080;-74
2022/11/07 10:24:03;;;;;;;10.13;2.53;;;;;;;14.03;97.68;100326.53;5039351;28;20560;-74
2022/11/07 10:26:30;;;;;;;5.72;2.17;;;;;;;14.13;96.08;100319.72;5036891;28;20168;-73
2022/11/07 10:29:10;;;;;;;6.38;1.80;;;;;;;14.22;94.66;100324.44;5034325;28;20157;-77
2022/11/07 10:31:56;;;;;;;6.70;1.40;;;;;;;14.31;93.76;100336.34;5038591;28;20493;-76
2022/11/07 10:34:31;;;;;;;9.60;1.92;;;;;;;14.18;93.89;100330.91;5038238;28;20045;-76
2022/11/07 10:36:58;;;;;;;8.20;2.17;;;;;;;13.98;95.22;100336.66;5037361;28;20048;-75
2022/11/07 10:39:25;;;;;;;9.27;2.00;;;;;;;13.77;96.68;100335.28;5030378;28;20045;-77
2022/11/07 10:42:14;;;;;;;9.15;2.00;;;;;;;13.74;97.64;100338.13;5035483;28;20045;-77
2022/11/07 10:44:41;;;;;;;7.38;2.10;;;;;;;13.66;97.78;100344.78;5032221;28;20185;-75
2022/11/07 10:47:17;;;;;;;6.07;1.98;;;;;;;13.61;98.19;100341.53;5043787;28;20108;-72
2022/11/07 10:49:59;;;;;;;7.60;1.92;;;;;;;13.43;98.48;100331.16;5034772;28;20053;-75
2022/11/07 10:52:27;;;;;;;9.27;1.92;;;;;;;13.48;98.95;100343.25;5047309;28;20087;-75
2022/11/07 10:55:07;;;;;;;10.07;1.80;;;;;;;13.57;99.16;100347.13;5045664;28;20148;-74
2022/11/07 10:57:34;;;;;;;9.00;2.23;;;;;;;13.67;97.85;100349.16;5038914;28;20088;-75
2022/11/07 11:00:02;;;;;;;12.65;2.15;;;;;;;13.67;96.87;100333.22;5033858;28;20049;-76
2022/11/07 11:02:47;;;;;;;9.93;2.28;;;;;;;13.76;97.39;100341.56;5038616;28;20052;-77
2022/11/07 11:05:31;;;;;;;11.40;2.30;;;;;;;13.78;95.91;100339.66;5031237;28;20140;-70
2022/11/07 11:08:13;;;;;;;12.27;2.70;;;;;;;13.74;95.74;100335.47;5033243;28;20061;-74
2022/11/07 11:10:40;;;;;;;7.55;2.53;;;;;;;13.80;96.38;100340.44;5035198;28;20079;-75
2022/11/07 11:13:28;;;;;;;9.50;1.90;;;;;;;13.84;94.55;100339.31;5042528;28;20041;-76
2022/11/07 11:16:00;;;;;;;7.93;2.22;;;;;;;13.78;94.33;100319.22;5036059;28;20084;-73
2022/11/07 11:18:31;;;;;;;8.30;3.30;;;;;;;13.95;93.47;100334.16;5039514;28;20774;-74
2022/11/07 11:21:01;;;;;;;9.20;2.25;;;;;;;14.04;92.45;100325.59;5039841;28;20049;-72
2022/11/07 11:23:30;;;;;;;8.18;2.03;;;;;;;13.98;92.52;100331.31;5035720;28;20048;-75
2022/11/07 11:26:00;;;;;;;8.93;1.67;;;;;;;13.99;92.75;100327.72;5037603;28;20068;-76
2022/11/07 11:28:35;;;;;;;10.13;3.70;;;;;;;14.08;92.51;100324.47;5043750;28;20045;-71
2022/11/07 11:31:10;;;;;;;12.05;3.05;;;;;;;14.16;92.60;100324.00;5033552;28;20102;-74
2022/11/07 11:33:43;;;;;;;9.80;1.98;;;;;;;14.13;91.84;100308.22;5043013;28;20036;-76
2022/11/07 11:36:18;;;;;;;7.68;2.58;;;;;;;14.06;91.74;100302.41;5040902;28;20040;-74
2022/11/07 11:38:53;;;;;;;8.73;2.25;;;;;;;14.19;92.28;100321.97;5037236;28;20049;-74
2022/11/07 11:41:40;;;;;;;7.22;1.80;;;;;;;14.27;90.80;100316.19;5041548;28;20048;-76
2022/11/07 11:44:36;;;;;;;7.85;1.88;;;;;;;14.21;90.87;100312.09;5034349;28;20056;-72